createdAt,value
2023-05-14T00:02:13.047Z,101315.19
2023-05-14T00:04:42.752Z,101318.09
2023-05-14T00:07:12.211Z,101318.06
2023-05-14T00:09:41.668Z,101320.31
2023-05-14T00:12:11.541Z,101314.19
2023-05-14T00:14:41.008Z,101315.47
2023-05-14T00:17:13.068Z,101315.41
2023-05-14T00:19:42.989Z,101317.28
2023-05-14T00:22:12.820Z,101306.75
2023-05-14T00:24:42.320Z,101308.91
2023-05-14T00:27:11.801Z,101313.22
2023-05-14T00:29:42.710Z,101304.59
2023-05-14T00:32:14.786Z,101307.72
2023-05-14T00:34:44.310Z,101298.50
2023-05-14T00:37:13.761Z,101291.88
2023-05-14T00:39:43.264Z,101299.88
2023-05-14T00:42:12.715Z,101294.59
2023-05-14T00:44:42.273Z,101294.94
2023-05-14T00:47:14.592Z,101297.50
2023-05-14T00:49:45.142Z,101300.50
2023-05-14T00:52:14.832Z,101298.34
2023-05-14T00:54:44.748Z,101300.25
2023-05-14T00:57:14.456Z,101308.16
2023-05-14T00:59:43.965Z,101301.84
2023-05-14T01:02:16.390Z,101302.16
2023-05-14T01:04:46.032Z,101302.75
2023-05-14T01:07:23.513Z,101294.38
2023-05-14T01:09:57.651Z,101300.81
2023-05-14T01:12:36.290Z,101302.88
2023-05-14T01:15:12.071Z,101299.25
2023-05-14T01:17:49.006Z,101301.25
2023-05-14T01:20:19.109Z,101301.19
2023-05-14T01:22:57.561Z,101300.47
2023-05-14T01:25:27.163Z,101306.91
2023-05-14T01:28:03.883Z,101301.97
2023-05-14T01:30:36.930Z,101301.31
2023-05-14T01:33:09.673Z,101306.13
2023-05-14T01:35:39.481Z,101297.53
2023-05-14T01:38:15.119Z,101293.00
2023-05-14T01:40:45.144Z,101303.41
2023-05-14T01:43:14.748Z,101291.88
2023-05-14T01:45:44.503Z,101293.72
2023-05-14T01:48:13.989Z,101288.63
2023-05-14T01:50:43.742Z,101295.09
2023-05-14T01:53:15.856Z,101292.69
2023-05-14T01:55:45.380Z,101286.84
2023-05-14T01:58:14.829Z,101293.09
2023-05-14T02:00:44.291Z,101287.25
2023-05-14T02:03:14.093Z,101290.81
2023-05-14T02:05:45.297Z,101287.47
2023-05-14T02:08:17.545Z,101283.66
2023-05-14T02:10:47.010Z,101279.78
2023-05-14T02:16:08.572Z,101278.66
2023-05-14T02:18:38.131Z,101286.38
2023-05-14T02:21:07.780Z,101284.53
2023-05-14T02:23:42.052Z,101276.19
2023-05-14T02:26:12.488Z,101271.72
2023-05-14T02:28:41.971Z,101265.31
2023-05-14T02:31:11.499Z,101264.84
2023-05-14T02:33:41.025Z,101266.28
2023-05-14T02:36:10.810Z,101256.63
2023-05-14T02:38:43.156Z,101268.72
2023-05-14T02:41:12.613Z,101271.72
2023-05-14T02:43:42.057Z,101274.25
2023-05-14T02:46:11.605Z,101268.81
2023-05-14T02:48:41.136Z,101262.22
2023-05-14T02:51:10.643Z,101264.41
2023-05-14T02:53:42.776Z,101273.03
2023-05-14T02:56:12.288Z,101267.81
2023-05-14T02:58:41.698Z,101263.84
2023-05-14T03:01:11.524Z,101267.19
2023-05-14T03:03:41.742Z,101260.00
2023-05-14T03:06:12.187Z,101270.38
2023-05-14T03:08:44.433Z,101265.91
2023-05-14T03:11:13.867Z,101263.38
2023-05-14T03:13:43.407Z,101268.19
2023-05-14T03:16:13.605Z,101257.53
2023-05-14T03:18:43.104Z,101260.38
2023-05-14T03:21:12.669Z,101258.69
2023-05-14T03:23:44.782Z,101261.81
2023-05-14T03:26:14.288Z,101258.53
2023-05-14T03:28:43.903Z,101256.56
2023-05-14T03:31:13.459Z,101264.34
2023-05-14T03:33:43.073Z,101258.44
2023-05-14T03:36:12.597Z,101267.44
2023-05-14T03:38:45.199Z,101261.44
2023-05-14T03:41:14.680Z,101270.81
2023-05-14T03:43:44.160Z,101263.78
2023-05-14T03:46:13.640Z,101257.53
2023-05-14T03:48:43.275Z,101260.56
2023-05-14T03:51:12.809Z,101259.56
2023-05-14T03:53:44.940Z,101262.09
2023-05-14T03:56:16.186Z,101265.22
2023-05-14T03:58:45.726Z,101261.56
2023-05-14T04:01:15.170Z,101261.75
2023-05-14T04:03:44.813Z,101260.91
2023-05-14T04:06:15.612Z,101257.25
2023-05-14T04:08:47.650Z,101258.38
2023-05-14T04:11:17.152Z,101255.28
2023-05-14T04:13:46.660Z,101262.97
2023-05-14T04:16:16.194Z,101254.59
2023-05-14T04:18:46.103Z,101262.00
2023-05-14T04:21:15.716Z,101260.63
2023-05-14T04:23:47.780Z,101261.47
2023-05-14T04:26:17.255Z,101256.22
2023-05-14T04:28:46.741Z,101252.09
2023-05-14T04:31:16.412Z,101257.44
2023-05-14T04:33:45.908Z,101254.44
2023-05-14T04:36:16.166Z,101239.84
2023-05-14T04:38:48.346Z,101250.06
2023-05-14T04:41:17.784Z,101240.66
2023-05-14T04:43:47.230Z,101249.13
2023-05-14T04:46:16.752Z,101247.06
2023-05-14T04:48:46.289Z,101245.50
2023-05-14T04:51:15.735Z,101243.88
2023-05-14T04:53:47.777Z,101247.53
2023-05-14T04:56:17.223Z,101254.66
2023-05-14T04:58:46.724Z,101257.53
2023-05-14T05:01:16.346Z,101255.28
2023-05-14T05:03:45.920Z,101258.00
2023-05-14T05:06:15.510Z,101257.16
2023-05-14T05:08:44.955Z,101254.91
2023-05-14T05:11:17.006Z,101253.72
2023-05-14T05:13:46.682Z,101260.38
2023-05-14T05:16:16.223Z,101253.97
2023-05-14T05:18:45.829Z,101262.13
2023-05-14T05:21:15.511Z,101264.03
2023-05-14T05:23:44.980Z,101252.97
2023-05-14T05:26:17.028Z,101252.00
2023-05-14T05:28:46.481Z,101254.66
2023-05-14T05:31:19.564Z,101254.38
2023-05-14T05:33:49.385Z,101255.13
2023-05-14T05:36:18.813Z,101251.88
2023-05-14T05:38:48.346Z,101254.59
2023-05-14T05:41:20.656Z,101247.53
2023-05-14T05:43:50.116Z,101248.22
2023-05-14T05:46:19.651Z,101246.59
2023-05-14T05:48:49.133Z,101247.44
2023-05-14T05:51:18.658Z,101247.09
2023-05-14T05:53:48.145Z,101253.63
2023-05-14T05:56:20.248Z,101254.28
2023-05-14T05:58:49.795Z,101255.75
2023-05-14T06:01:19.287Z,101250.31
2023-05-14T06:03:48.924Z,101247.50
2023-05-14T06:06:18.536Z,101251.69
2023-05-14T06:08:47.998Z,101252.56
2023-05-14T06:11:20.036Z,101257.19
2023-05-14T06:13:49.523Z,101257.00
2023-05-14T06:16:19.017Z,101252.19
2023-05-14T06:18:48.526Z,101256.41
2023-05-14T06:21:18.066Z,101256.66
2023-05-14T06:23:47.734Z,101254.56
2023-05-14T06:26:19.814Z,101253.75
2023-05-14T06:28:49.369Z,101252.91
2023-05-14T06:31:18.868Z,101259.38
2023-05-14T06:33:48.491Z,101257.72
2023-05-14T06:36:17.932Z,101253.59
2023-05-14T06:38:47.407Z,101257.59
2023-05-14T06:41:16.922Z,101249.84
2023-05-14T06:43:48.979Z,101254.31
2023-05-14T06:46:18.486Z,101251.59
2023-05-14T06:48:48.018Z,101253.50
2023-05-14T06:51:17.599Z,101254.75
2023-05-14T06:53:47.804Z,101250.16
2023-05-14T06:56:17.477Z,101250.78
2023-05-14T06:58:49.547Z,101246.63
2023-05-14T07:01:19.324Z,101244.09
2023-05-14T07:03:48.817Z,101249.41
2023-05-14T07:06:18.314Z,101246.66
2023-05-14T07:08:48.672Z,101249.41
2023-05-14T07:11:18.318Z,101245.66
2023-05-14T07:13:50.518Z,101240.41
2023-05-14T07:16:20.106Z,101250.13
2023-05-14T07:18:49.627Z,101243.22
2023-05-14T07:21:19.138Z,101236.72
2023-05-14T07:23:48.615Z,101231.72
2023-05-14T07:26:18.157Z,101239.69
2023-05-14T07:28:50.168Z,101233.19
2023-05-14T07:31:19.663Z,101228.19
2023-05-14T07:33:49.185Z,101234.47
2023-05-14T07:36:18.759Z,101230.72
2023-05-14T07:38:48.331Z,101224.47
2023-05-14T07:41:17.859Z,101224.28
2023-05-14T07:43:50.012Z,101228.06
2023-05-14T07:46:19.433Z,101222.81
2023-05-14T07:48:48.922Z,101225.16
2023-05-14T07:51:18.437Z,101220.75
2023-05-14T07:53:47.956Z,101225.19
2023-05-14T07:56:17.401Z,101215.13
2023-05-14T07:58:47.039Z,101217.19
2023-05-14T08:01:19.726Z,101224.34
2023-05-14T08:03:49.109Z,101216.78
2023-05-14T08:06:21.099Z,101216.78
2023-05-14T08:08:50.604Z,101215.53
2023-05-14T08:11:20.051Z,101207.16
2023-05-14T08:13:49.576Z,101205.91
2023-05-14T08:16:21.746Z,101205.91
2023-05-14T08:18:51.373Z,101211.56
2023-05-14T08:21:20.927Z,101200.47
2023-05-14T08:23:51.068Z,101208.22
2023-05-14T08:26:21.743Z,101205.09
2023-05-14T08:28:51.246Z,101202.34
2023-05-14T08:31:23.658Z,101201.09
2023-05-14T08:33:53.222Z,101193.75
2023-05-14T08:36:22.692Z,101206.97
2023-05-14T08:38:52.124Z,101197.28
2023-05-14T08:41:21.945Z,101200.66
2023-05-14T08:44:01.363Z,101191.63
2023-05-14T08:46:34.697Z,101190.16
2023-05-14T08:49:11.415Z,101186.34
2023-05-14T08:51:41.483Z,101184.91
2023-05-14T08:54:10.935Z,101184.50
2023-05-14T08:56:43.326Z,101175.47
2023-05-14T08:59:13.054Z,101174.41
2023-05-14T09:01:49.277Z,101183.03
2023-05-14T09:04:23.356Z,101170.84
2023-05-14T09:06:55.223Z,101170.00
2023-05-14T09:09:25.836Z,101172.28
2023-05-14T09:11:56.306Z,101172.88
2023-05-14T09:14:26.452Z,101173.94
2023-05-14T09:16:58.559Z,101184.41
2023-05-14T09:19:28.879Z,101171.59
2023-05-14T09:22:00.788Z,101175.38
2023-05-14T09:24:31.881Z,101170.13
2023-05-14T09:27:01.576Z,101182.06
2023-05-14T09:29:32.520Z,101168.59
2023-05-14T09:32:05.672Z,101167.97
2023-05-14T09:34:38.157Z,101155.13
2023-05-14T09:37:08.880Z,101153.88
2023-05-14T09:39:40.071Z,101145.25
2023-05-14T09:42:09.893Z,101147.56
2023-05-14T09:44:39.336Z,101142.44
2023-05-14T09:47:11.497Z,101138.69
2023-05-14T09:49:40.971Z,101149.19
2023-05-14T09:52:10.422Z,101139.03
2023-05-14T09:54:40.351Z,101141.53
2023-05-14T09:57:10.037Z,101134.78
2023-05-14T09:59:39.510Z,101133.72
2023-05-14T10:02:18.987Z,101134.53
2023-05-14T10:04:49.450Z,101129.91
2023-05-14T10:07:22.164Z,101124.88
2023-05-14T10:09:51.587Z,101122.50
2023-05-14T10:12:24.908Z,101122.94
2023-05-14T10:14:59.322Z,101120.19
2023-05-14T10:17:34.753Z,101116.63
2023-05-14T10:20:08.399Z,101114.72
2023-05-14T10:22:38.073Z,101113.44
2023-05-14T10:25:08.840Z,101115.72
2023-05-14T10:27:38.780Z,101106.84
2023-05-14T10:30:13.085Z,101119.03
2023-05-14T10:32:45.237Z,101111.81
2023-05-14T10:35:25.526Z,101108.81
2023-05-14T10:37:55.059Z,101106.13
2023-05-14T10:40:27.179Z,101103.94
2023-05-14T10:43:01.437Z,101096.41
2023-05-14T10:45:30.892Z,101099.28
2023-05-14T10:48:03.179Z,101093.56
2023-05-14T10:50:32.928Z,101104.06
2023-05-14T10:53:02.994Z,101088.69
2023-05-14T10:55:33.237Z,101090.16
2023-05-14T10:58:03.196Z,101089.88
2023-05-14T11:00:36.022Z,101092.31
2023-05-14T11:03:10.047Z,101084.09
2023-05-14T11:05:42.358Z,101083.75
2023-05-14T11:08:11.999Z,101084.09
2023-05-14T11:10:42.392Z,101082.16
2023-05-14T11:13:13.121Z,101077.72
2023-05-14T11:15:47.231Z,101075.16
2023-05-14T11:18:29.353Z,101072.81
2023-05-14T11:21:01.652Z,101066.19
2023-05-14T11:23:31.929Z,101063.69
2023-05-14T11:26:01.762Z,101060.31
2023-05-14T11:28:31.545Z,101054.25
2023-05-14T11:31:01.145Z,101049.66
2023-05-14T11:33:33.277Z,101053.38
2023-05-14T11:36:02.746Z,101050.88
2023-05-14T11:38:32.193Z,101040.75
2023-05-14T11:41:04.476Z,101045.97
2023-05-14T11:43:34.068Z,101045.84
2023-05-14T11:46:03.578Z,101035.03
2023-05-14T11:48:35.690Z,101027.09
2023-05-14T11:51:05.102Z,101039.34
2023-05-14T11:53:34.837Z,101030.03
2023-05-14T11:56:05.666Z,101020.47
2023-05-14T11:58:36.848Z,101021.88
2023-05-14T12:01:06.500Z,101020.41
2023-05-14T12:03:38.848Z,101018.31
2023-05-14T12:06:10.057Z,101019.81
2023-05-14T12:08:40.065Z,101029.28
2023-05-14T12:11:09.544Z,101010.91
2023-05-14T12:13:39.481Z,101019.53
2023-05-14T12:16:09.364Z,101010.44
2023-05-14T12:18:41.556Z,101014.16
2023-05-14T12:21:12.220Z,101005.00
2023-05-14T12:23:42.065Z,101000.47
2023-05-14T12:26:12.113Z,100995.34
2023-05-14T12:28:43.785Z,100987.25
2023-05-14T12:31:13.416Z,100991.00
2023-05-14T12:33:46.042Z,100989.22
2023-05-14T12:36:21.716Z,100978.53
2023-05-14T12:38:52.146Z,100980.25
2023-05-14T12:41:21.868Z,100966.78
2023-05-14T12:43:51.884Z,100973.59
2023-05-14T12:46:21.543Z,100966.91
2023-05-14T12:48:53.708Z,100966.66
2023-05-14T12:51:23.265Z,100971.94
2023-05-14T12:53:54.322Z,100964.28
2023-05-14T12:56:28.331Z,100975.50
2023-05-14T12:58:58.774Z,100959.59
2023-05-14T13:01:28.292Z,100958.06
2023-05-14T13:04:00.356Z,100959.34
2023-05-14T13:06:32.791Z,100955.66
2023-05-14T13:09:02.627Z,100951.81
2023-05-14T13:11:32.374Z,100942.09
2023-05-14T13:14:02.396Z,100940.44
2023-05-14T13:16:32.297Z,100937.00
2023-05-14T13:19:04.376Z,100934.22
2023-05-14T13:21:34.085Z,100942.56
2023-05-14T13:24:03.528Z,100926.91
2023-05-14T13:26:33.024Z,100919.59
2023-05-14T13:29:02.442Z,100915.28
2023-05-14T13:31:32.039Z,100908.13
2023-05-14T13:34:04.375Z,100906.06
2023-05-14T13:36:34.020Z,100905.06
2023-05-14T13:39:04.562Z,100905.66
2023-05-14T13:41:35.692Z,100902.31
2023-05-14T13:44:05.138Z,100893.81
2023-05-14T13:46:35.021Z,100897.97
2023-05-14T13:49:07.140Z,100894.41
2023-05-14T13:51:36.539Z,100890.69
2023-05-14T13:54:06.236Z,100896.22
2023-05-14T13:56:35.721Z,100902.22
2023-05-14T13:59:05.184Z,100898.13
2023-05-14T14:01:34.740Z,100901.28
2023-05-14T14:04:06.888Z,100888.28
2023-05-14T14:06:36.351Z,100899.44
2023-05-14T14:09:06.160Z,100896.56
2023-05-14T14:11:35.722Z,100894.91
2023-05-14T14:14:07.213Z,100891.69
2023-05-14T14:16:36.818Z,100902.81
2023-05-14T14:19:09.383Z,100900.34
2023-05-14T14:21:39.851Z,100892.72
2023-05-14T14:24:09.967Z,100887.81
2023-05-14T14:26:39.418Z,100883.06
2023-05-14T14:29:08.946Z,100883.16
2023-05-14T14:31:39.541Z,100884.09
2023-05-14T14:34:15.804Z,100891.50
2023-05-14T14:36:45.468Z,100886.84
2023-05-14T14:39:14.943Z,100889.91
2023-05-14T14:41:44.532Z,100879.06
2023-05-14T14:44:14.070Z,100876.53
2023-05-14T14:46:44.201Z,100883.47
2023-05-14T14:49:16.244Z,100879.75
2023-05-14T14:51:47.052Z,100886.84
2023-05-14T14:54:16.483Z,100883.22
2023-05-14T14:56:46.091Z,100880.78
2023-05-14T14:59:15.556Z,100872.09
2023-05-14T15:01:45.140Z,100874.84
2023-05-14T15:04:17.229Z,100864.69
2023-05-14T15:06:46.720Z,100872.09
2023-05-14T15:09:16.315Z,100871.16
2023-05-14T15:11:45.800Z,100868.31
2023-05-14T15:14:15.348Z,100866.00
2023-05-14T15:16:44.991Z,100864.25
2023-05-14T15:19:17.320Z,100872.13
2023-05-14T15:21:47.006Z,100869.88
2023-05-14T15:24:16.453Z,100872.13
2023-05-14T15:26:45.981Z,100870.00
2023-05-14T15:29:15.545Z,100870.84
2023-05-14T15:31:45.203Z,100862.22
2023-05-14T15:34:17.327Z,100862.91
2023-05-14T15:36:46.782Z,100866.81
2023-05-14T15:39:16.260Z,100864.50
2023-05-14T15:41:45.761Z,100860.16
2023-05-14T15:44:15.263Z,100862.81
2023-05-14T15:46:44.886Z,100853.38
2023-05-14T15:49:17.036Z,100849.44
2023-05-14T15:51:46.502Z,100852.53
2023-05-14T15:54:16.054Z,100840.84
2023-05-14T15:56:46.543Z,100837.63
2023-05-14T15:59:17.725Z,100836.09
2023-05-14T16:01:47.411Z,100829.16
2023-05-14T16:04:19.456Z,100840.16
2023-05-14T16:06:48.900Z,100826.41
2023-05-14T16:09:18.479Z,100825.50
2023-05-14T16:11:48.076Z,100821.69
2023-05-14T16:14:18.609Z,100820.59
2023-05-14T16:16:48.302Z,100818.53
2023-05-14T16:19:20.614Z,100821.19
2023-05-14T16:21:50.185Z,100815.13
2023-05-14T16:24:20.309Z,100815.91
2023-05-14T16:26:50.093Z,100811.53
2023-05-14T16:29:19.653Z,100816.19
2023-05-14T16:31:49.225Z,100817.16
2023-05-14T16:34:21.300Z,100805.56
2023-05-14T16:36:51.097Z,100809.41
2023-05-14T16:39:20.528Z,100800.81
2023-05-14T16:41:50.010Z,100807.16
2023-05-14T16:44:19.533Z,100798.44
2023-05-14T16:46:49.026Z,100807.38
2023-05-14T16:49:22.555Z,100805.38
2023-05-14T16:51:52.077Z,100801.22
2023-05-14T16:54:21.781Z,100798.22
2023-05-14T16:56:51.587Z,100797.63
2023-05-14T16:59:21.098Z,100798.97
2023-05-14T17:01:50.862Z,100797.50
2023-05-14T17:04:25.060Z,100787.63
2023-05-14T17:06:54.673Z,100792.38
2023-05-14T17:09:24.149Z,100790.13
2023-05-14T17:11:53.639Z,100786.88
2023-05-14T17:14:23.139Z,100791.22
2023-05-14T17:16:52.665Z,100794.09
2023-05-14T17:19:24.840Z,100782.50
2023-05-14T17:21:54.230Z,100785.59
2023-05-14T17:24:23.631Z,100784.75
2023-05-14T17:26:53.151Z,100783.34
2023-05-14T17:29:23.076Z,100775.59
2023-05-14T17:31:52.748Z,100778.13
2023-05-14T17:34:24.900Z,100783.13
2023-05-14T17:36:54.543Z,100784.19
2023-05-14T17:39:24.117Z,100792.81
2023-05-14T17:41:53.551Z,100783.25
2023-05-14T17:44:23.007Z,100787.06
2023-05-14T17:46:52.564Z,100789.09
2023-05-14T17:49:24.730Z,100788.88
2023-05-14T17:51:54.375Z,100787.81
2023-05-14T17:54:23.817Z,100781.72
2023-05-14T17:56:53.626Z,100787.44
2023-05-14T17:59:24.415Z,100784.72
2023-05-14T18:01:54.048Z,100784.09
2023-05-14T18:04:26.091Z,100788.16
2023-05-14T18:06:55.629Z,100788.16
2023-05-14T18:09:25.133Z,100781.84
2023-05-14T18:11:56.770Z,100792.22
2023-05-14T18:14:26.533Z,100793.28
2023-05-14T18:16:56.610Z,100794.41
2023-05-14T18:19:28.698Z,100791.66
2023-05-14T18:21:58.196Z,100797.63
2023-05-14T18:24:27.969Z,100797.38
2023-05-14T18:26:57.549Z,100789.88
2023-05-14T18:29:27.112Z,100798.69
2023-05-14T18:31:56.527Z,100798.09
2023-05-14T18:34:28.595Z,100793.06
2023-05-14T18:36:58.584Z,100796.88
2023-05-14T18:39:28.251Z,100797.94
2023-05-14T18:41:57.845Z,100798.19
2023-05-14T18:44:27.285Z,100795.69
2023-05-14T18:46:59.451Z,100794.84
2023-05-14T18:49:31.485Z,100786.03
2023-05-14T18:52:01.024Z,100798.91
2023-05-14T18:54:30.630Z,100797.25
2023-05-14T18:57:00.163Z,100804.88
2023-05-14T18:59:29.636Z,100799.03
2023-05-14T19:01:59.156Z,100795.69
2023-05-14T19:04:33.300Z,100804.19
2023-05-14T19:07:03.130Z,100799.75
2023-05-14T19:09:32.614Z,100802.97
2023-05-14T19:12:02.039Z,100799.41
2023-05-14T19:14:31.580Z,100794.75
2023-05-14T19:17:06.108Z,100794.38
2023-05-14T19:19:39.448Z,100799.66
2023-05-14T19:22:09.565Z,100803.09
2023-05-14T19:24:40.238Z,100804.16
2023-05-14T19:27:10.169Z,100799.16
2023-05-14T19:29:39.724Z,100803.22
2023-05-14T19:32:10.353Z,100798.78
2023-05-14T19:34:42.392Z,100805.00
2023-05-14T19:37:11.892Z,100800.59
2023-05-14T19:39:41.362Z,100805.22
2023-05-14T19:42:11.011Z,100808.44
2023-05-14T19:44:40.471Z,100802.38
2023-05-14T19:47:10.467Z,100797.72
2023-05-14T19:49:42.652Z,100803.09
2023-05-14T19:52:12.217Z,100793.19
2023-05-14T19:54:41.668Z,100791.53
2023-05-14T19:57:12.068Z,100794.50
2023-05-14T19:59:41.991Z,100797.72
2023-05-14T20:02:12.590Z,100796.31
2023-05-14T20:04:46.216Z,100795.69
2023-05-14T20:07:16.571Z,100792.94
2023-05-14T20:09:46.763Z,100798.91
2023-05-14T20:12:16.913Z,100796.41
2023-05-14T20:14:46.421Z,100795.56
2023-05-14T20:17:16.404Z,100798.78
2023-05-14T20:19:48.612Z,100793.53
2023-05-14T20:22:18.297Z,100797.00
2023-05-14T20:24:47.749Z,100794.94
2023-05-14T20:27:17.224Z,100797.56
2023-05-14T20:29:46.861Z,100791.63
2023-05-14T20:32:17.376Z,100794.41
2023-05-14T20:34:49.629Z,100792.16
2023-05-14T20:37:19.904Z,100783.09
2023-05-14T20:39:49.728Z,100784.41
2023-05-14T20:42:19.276Z,100781.84
2023-05-14T20:44:48.846Z,100786.47
2023-05-14T20:47:24.407Z,100777.75
2023-05-14T20:49:56.524Z,100770.22
2023-05-14T20:52:26.104Z,100772.16
2023-05-14T20:54:55.813Z,100776.84
2023-05-14T20:57:25.782Z,100771.28
2023-05-14T20:59:55.251Z,100778.44
2023-05-14T21:02:24.856Z,100765.31
2023-05-14T21:04:57.224Z,100766.94
2023-05-14T21:07:28.292Z,100766.91
2023-05-14T21:09:58.413Z,100763.78
2023-05-14T21:12:27.937Z,100757.84
2023-05-14T21:14:57.401Z,100763.41
2023-05-14T21:17:26.949Z,100757.50
2023-05-14T21:19:59.147Z,100757.97
2023-05-14T21:22:29.801Z,100755.50
2023-05-14T21:24:59.345Z,100754.13
2023-05-14T21:27:29.129Z,100751.53
2023-05-14T21:29:58.574Z,100742.09
2023-05-14T21:32:28.062Z,100743.03
2023-05-14T21:35:00.247Z,100735.72
2023-05-14T21:37:29.904Z,100737.84
2023-05-14T21:39:59.413Z,100729.44
2023-05-14T21:42:28.889Z,100737.00
2023-05-14T21:44:58.409Z,100739.16
2023-05-14T21:47:28.043Z,100733.97
2023-05-14T21:50:00.338Z,100736.66
2023-05-14T21:52:29.805Z,100729.75
2023-05-14T21:54:59.307Z,100726.16
2023-05-14T21:57:31.879Z,100730.72
2023-05-14T22:00:03.721Z,100721.34
2023-05-14T22:02:34.142Z,100728.84
2023-05-14T22:05:06.621Z,100720.19
2023-05-14T22:07:36.185Z,100721.75
2023-05-14T22:10:05.798Z,100719.72
2023-05-14T22:12:35.309Z,100727.22
2023-05-14T22:15:05.253Z,100717.00
2023-05-14T22:17:34.986Z,100723.91
2023-05-14T22:20:10.250Z,100722.31
2023-05-14T22:22:39.808Z,100714.19
2023-05-14T22:25:10.190Z,100715.16
2023-05-14T22:27:39.742Z,100719.94
2023-05-14T22:30:11.131Z,100715.84
2023-05-14T22:32:40.773Z,100701.50
2023-05-14T22:35:13.119Z,100710.38
2023-05-14T22:37:42.634Z,100704.16
2023-05-14T22:40:13.690Z,100703.31
2023-05-14T22:42:43.201Z,100697.72
2023-05-14T22:45:13.378Z,100705.22
2023-05-14T22:47:43.431Z,100702.47
2023-05-14T22:50:15.695Z,100699.34
2023-05-14T22:52:45.186Z,100695.72
2023-05-14T22:55:14.691Z,100691.91
2023-05-14T22:57:44.219Z,100691.19
2023-05-14T23:00:15.629Z,100691.00
2023-05-14T23:02:45.256Z,100686.97
2023-05-14T23:05:17.531Z,100687.00
2023-05-14T23:07:47.156Z,100691.91
2023-05-14T23:10:16.632Z,100690.03
2023-05-14T23:12:46.102Z,100690.53
2023-05-14T23:15:15.560Z,100688.19
2023-05-14T23:17:45.279Z,100679.44
2023-05-14T23:20:17.469Z,100676.03
2023-05-14T23:22:47.008Z,100677.97
2023-05-14T23:25:16.465Z,100674.84
2023-05-14T23:27:46.042Z,100678.13
2023-05-14T23:30:16.328Z,100665.47
2023-05-14T23:32:45.819Z,100667.84
2023-05-14T23:35:18.138Z,100676.25
2023-05-14T23:37:49.633Z,100666.53
2023-05-14T23:40:19.690Z,100666.47
2023-05-14T23:42:49.589Z,100668.00
2023-05-14T23:45:19.172Z,100677.97
2023-05-14T23:47:48.757Z,100662.34
2023-05-14T23:50:21.069Z,100659.59
2023-05-14T23:52:50.615Z,100661.31
2023-05-14T23:55:20.183Z,100656.03
2023-05-14T23:57:50.089Z,100647.06
